createdAt,value
2019-01-15T00:03:14.138Z,77.70
2019-01-15T00:08:19.960Z,78.00
2019-01-15T00:13:24.503Z,78.20
2019-01-15T00:18:29.092Z,78.10
2019-01-15T00:23:33.649Z,78.10
2019-01-15T00:28:38.138Z,77.90
2019-01-15T00:33:42.770Z,77.90
2019-01-15T00:38:47.329Z,78.90
2019-01-15T00:43:51.859Z,78.30
2019-01-15T00:48:56.441Z,78.60
2019-01-15T00:54:01.026Z,78.90
2019-01-15T00:59:05.584Z,79.20
2019-01-15T01:04:10.179Z,79.30
2019-01-15T01:09:14.749Z,79.40
2019-01-15T01:14:19.350Z,79.50
2019-01-15T01:19:23.934Z,79.60
2019-01-15T01:24:28.477Z,79.60
2019-01-15T01:29:33.001Z,79.60
2019-01-15T01:34:37.555Z,79.90
2019-01-15T01:39:42.123Z,80.10
2019-01-15T01:44:46.632Z,80.20
2019-01-15T01:49:51.203Z,80.40
2019-01-15T01:54:55.793Z,80.40
2019-01-15T02:00:00.309Z,80.50
2019-01-15T02:05:05.532Z,80.70
2019-01-15T02:10:12.051Z,81.00
2019-01-15T02:15:18.778Z,81.10
2019-01-15T02:20:23.492Z,81.10
2019-01-15T02:25:28.008Z,81.20
2019-01-15T02:30:32.573Z,81.30
2019-01-15T02:35:37.210Z,80.90
2019-01-15T02:40:41.789Z,80.90
2019-01-15T02:45:46.391Z,81.30
2019-01-15T02:50:51.347Z,81.50
2019-01-15T02:55:55.930Z,81.70
2019-01-15T03:01:00.551Z,81.80
2019-01-15T03:06:05.124Z,82.00
2019-01-15T03:11:09.685Z,82.30
2019-01-15T03:16:14.169Z,82.50
2019-01-15T03:21:18.676Z,82.50
2019-01-15T03:26:23.180Z,82.60
2019-01-15T03:31:27.753Z,82.60
2019-01-15T03:36:32.352Z,82.40
2019-01-15T03:41:36.942Z,82.20
2019-01-15T03:46:42.211Z,82.10
2019-01-15T03:51:46.783Z,82.10
2019-01-15T03:56:51.398Z,82.00
2019-01-15T04:01:55.987Z,81.90
2019-01-15T04:07:00.561Z,82.10
2019-01-15T04:12:05.153Z,82.20
2019-01-15T04:17:09.753Z,82.40
2019-01-15T04:22:14.290Z,82.50
2019-01-15T04:27:18.786Z,82.50
2019-01-15T04:32:23.377Z,82.50
2019-01-15T04:37:27.922Z,82.80
2019-01-15T04:42:32.498Z,83.10
2019-01-15T04:47:37.089Z,82.70
2019-01-15T04:52:42.990Z,82.50
2019-01-15T04:57:47.563Z,82.40
2019-01-15T05:02:52.500Z,82.80
2019-01-15T05:07:57.091Z,83.10
2019-01-15T05:13:01.654Z,83.20
2019-01-15T05:18:06.250Z,83.10
2019-01-15T05:23:10.822Z,83.40
2019-01-15T05:28:15.385Z,83.20
2019-01-15T05:33:19.891Z,83.60
2019-01-15T05:38:24.505Z,83.80
2019-01-15T05:43:35.513Z,83.70
2019-01-15T05:48:37.090Z,84.20
2019-01-15T05:53:41.637Z,84.00
2019-01-15T05:58:46.244Z,84.40
2019-01-15T06:03:50.786Z,84.50
2019-01-15T06:08:55.272Z,84.80
2019-01-15T06:13:59.781Z,84.60
2019-01-15T06:19:04.442Z,84.60
2019-01-15T06:24:08.954Z,84.80
2019-01-15T06:29:13.701Z,84.70
2019-01-15T06:34:18.230Z,84.80
2019-01-15T06:39:22.811Z,84.90
2019-01-15T06:44:27.394Z,84.60
2019-01-15T06:49:32.080Z,85.90
2019-01-15T06:54:36.681Z,86.50
2019-01-15T06:59:41.269Z,86.00
2019-01-15T07:04:45.782Z,85.80
2019-01-15T07:09:50.382Z,85.70
2019-01-15T07:14:54.975Z,85.40
2019-01-15T07:19:59.569Z,85.50
2019-01-15T07:25:04.782Z,85.30
2019-01-15T07:30:13.370Z,85.50
2019-01-15T07:35:17.956Z,85.40
2019-01-15T07:40:22.541Z,85.40
2019-01-15T07:45:27.049Z,85.20
2019-01-15T07:50:31.608Z,85.10
2019-01-15T07:55:36.453Z,85.10
2019-01-15T08:00:41.237Z,85.10
2019-01-15T08:05:45.788Z,86.30
2019-01-15T08:10:56.803Z,87.00
2019-01-15T08:15:56.607Z,86.90
2019-01-15T08:21:01.206Z,86.90
2019-01-15T08:26:05.789Z,86.70
2019-01-15T08:31:10.365Z,86.30
2019-01-15T08:36:14.903Z,86.10
2019-01-15T08:41:19.423Z,85.70
2019-01-15T08:46:23.933Z,86.00
2019-01-15T08:51:28.664Z,86.00
2019-01-15T08:56:33.276Z,86.00
2019-01-15T09:01:38.147Z,85.80
2019-01-15T09:06:42.685Z,85.80
2019-01-15T09:11:47.264Z,85.80
2019-01-15T09:16:51.785Z,85.60
2019-01-15T09:21:56.395Z,85.60
2019-01-15T09:27:00.973Z,85.60
2019-01-15T09:32:05.688Z,85.60
2019-01-15T09:37:11.992Z,85.50
2019-01-15T09:42:18.335Z,85.80
2019-01-15T09:47:23.078Z,85.80
2019-01-15T09:52:27.653Z,86.30
2019-01-15T09:57:32.265Z,87.30
2019-01-15T10:02:36.767Z,86.50
2019-01-15T10:07:41.260Z,86.20
2019-01-15T10:12:45.922Z,86.20
2019-01-15T10:17:50.511Z,86.50
2019-01-15T10:22:55.127Z,86.00
2019-01-15T10:27:59.751Z,86.40
2019-01-15T10:33:26.709Z,86.70
2019-01-15T10:38:32.526Z,86.80
2019-01-15T10:43:37.119Z,86.40
2019-01-15T10:48:41.732Z,86.30
2019-01-15T10:53:46.346Z,86.40
2019-01-15T10:58:51.062Z,86.30
2019-01-15T11:03:55.694Z,87.00
2019-01-15T11:09:00.272Z,86.80
2019-01-15T11:14:04.918Z,87.10
2019-01-15T11:19:09.543Z,87.20
2019-01-15T11:24:14.194Z,87.10
2019-01-15T11:29:18.809Z,87.40
2019-01-15T11:34:26.230Z,87.80
2019-01-15T11:39:31.037Z,87.30
2019-01-15T11:44:35.730Z,87.30
2019-01-15T11:49:40.357Z,87.40
2019-01-15T11:54:44.936Z,87.10
2019-01-15T11:59:49.513Z,87.20
2019-01-15T12:05:28.185Z,86.80
2019-01-15T12:10:51.697Z,87.00
2019-01-15T12:16:20.909Z,86.70
2019-01-15T12:21:56.214Z,86.60
2019-01-15T12:27:28.747Z,86.30
2019-01-15T12:32:45.784Z,86.00
2019-01-15T12:38:07.550Z,85.80
2019-01-15T12:43:29.318Z,85.50
2019-01-15T12:48:51.461Z,85.90
2019-01-15T12:54:14.915Z,85.90
2019-01-15T12:59:37.084Z,85.80
2019-01-15T13:05:15.713Z,85.70
2019-01-15T13:10:39.223Z,85.70
2019-01-15T13:15:57.061Z,85.80
2019-01-15T13:21:18.910Z,87.00
2019-01-15T13:26:36.192Z,86.20
2019-01-15T13:32:05.663Z,86.30
2019-01-15T13:37:33.601Z,86.50
2019-01-15T13:42:55.729Z,86.70
2019-01-15T13:48:25.030Z,87.00
2019-01-15T13:53:57.604Z,87.20
2019-01-15T13:59:21.169Z,87.20
2019-01-15T14:04:43.343Z,86.90
2019-01-15T14:10:06.836Z,87.30
2019-01-15T14:15:28.693Z,87.10
2019-01-15T14:20:52.909Z,86.80
2019-01-15T14:26:14.853Z,87.00
2019-01-15T14:31:33.633Z,86.80
2019-01-15T14:36:52.833Z,86.80
2019-01-15T14:42:19.320Z,87.10
2019-01-15T14:47:41.427Z,86.80
2019-01-15T14:53:10.807Z,87.00
2019-01-15T14:58:27.028Z,87.50
2019-01-15T15:03:59.537Z,87.20
2019-01-15T15:09:24.565Z,87.00
2019-01-15T15:14:50.737Z,87.10
2019-01-15T15:20:17.024Z,87.10
2019-01-15T15:25:39.070Z,87.00
2019-01-15T15:31:17.507Z,86.90
2019-01-15T15:36:33.725Z,87.10
2019-01-15T15:41:55.627Z,86.90
2019-01-15T15:47:26.946Z,86.40
2019-01-15T15:52:53.480Z,86.50
2019-01-15T15:58:11.825Z,86.90
2019-01-15T16:03:53.251Z,86.80
2019-01-15T16:09:19.758Z,86.80
2019-01-15T16:14:43.237Z,87.10
2019-01-15T16:20:12.484Z,87.00
2019-01-15T16:25:34.637Z,87.00
2019-01-15T16:30:58.121Z,87.00
2019-01-15T16:36:21.554Z,86.80
2019-01-15T16:41:43.408Z,87.00
2019-01-15T16:47:05.286Z,86.70
2019-01-15T16:52:30.182Z,86.70
2019-01-15T16:58:02.511Z,86.60
2019-01-15T17:03:24.669Z,86.40
2019-01-15T17:08:46.609Z,86.40
2019-01-15T17:14:11.494Z,86.20
2019-01-15T17:19:29.873Z,86.30
2019-01-15T17:25:08.516Z,86.20
2019-01-15T17:30:31.613Z,86.00
2019-01-15T17:35:51.720Z,86.00
2019-01-15T17:41:07.837Z,86.00
2019-01-15T17:46:41.094Z,86.00
2019-01-15T17:52:08.681Z,85.90
2019-01-15T17:57:29.679Z,85.70
2019-01-15T18:02:56.240Z,85.80
2019-01-15T18:08:22.709Z,85.60
2019-01-15T18:13:55.416Z,85.40
2019-01-15T18:19:32.774Z,85.20
2019-01-15T18:24:54.074Z,85.20
2019-01-15T18:30:16.163Z,85.20
2019-01-15T18:35:32.468Z,85.00
2019-01-15T18:41:05.139Z,84.90
2019-01-15T18:46:26.662Z,84.80
2019-01-15T18:51:59.297Z,84.70
2019-01-15T18:57:31.719Z,84.70
2019-01-15T19:02:57.957Z,84.70
2019-01-15T19:08:17.520Z,84.60
2019-01-15T19:13:43.781Z,84.60
2019-01-15T19:19:01.991Z,84.60
2019-01-15T19:24:25.462Z,84.70
2019-01-15T19:29:51.652Z,84.70
2019-01-15T19:35:23.914Z,84.50
2019-01-15T19:40:44.768Z,84.40
2019-01-15T19:46:23.349Z,84.20
2019-01-15T19:51:49.713Z,84.10
2019-01-15T19:57:04.405Z,84.10
2019-01-15T20:02:28.014Z,84.00
2019-01-15T20:08:09.449Z,83.80
2019-01-15T20:13:24.940Z,83.80
2019-01-15T20:18:51.174Z,83.70
2019-01-15T20:24:20.662Z,83.70
2019-01-15T20:29:44.134Z,83.60
2019-01-15T20:35:10.353Z,83.70
2019-01-15T20:40:32.157Z,83.80
2019-01-15T20:46:04.523Z,83.70
2019-01-15T20:51:26.457Z,83.80
2019-01-15T20:56:48.525Z,83.90
2019-01-15T21:02:24.122Z,84.10
2019-01-15T21:07:41.745Z,84.30
2019-01-15T21:13:03.597Z,84.40
2019-01-15T21:18:32.853Z,84.50
2019-01-15T21:23:59.052Z,84.70
2019-01-15T21:29:28.628Z,85.10
2019-01-15T21:34:57.899Z,85.10
2019-01-15T21:40:31.001Z,85.20
2019-01-15T21:45:44.444Z,85.30
2019-01-15T21:51:04.850Z,85.30
2019-01-15T21:56:20.828Z,85.40
2019-01-15T22:01:43.031Z,85.40
2019-01-15T22:07:24.703Z,85.60
2019-01-15T22:12:54.855Z,86.20
2019-01-15T22:18:18.410Z,86.40
2019-01-15T22:23:50.672Z,87.00
2019-01-15T22:29:29.123Z,87.00
2019-01-15T22:34:50.947Z,87.20
2019-01-15T22:40:13.078Z,86.80
2019-01-15T22:45:36.144Z,87.80
2019-01-15T22:50:58.071Z,87.50
2019-01-15T22:56:36.515Z,87.40
2019-01-15T23:01:51.610Z,87.30
2019-01-15T23:07:13.657Z,87.60
2019-01-15T23:12:39.520Z,87.50
2019-01-15T23:18:08.820Z,87.70
2019-01-15T23:23:35.405Z,88.10
2019-01-15T23:28:57.674Z,88.70
2019-01-15T23:34:28.628Z,88.70
2019-01-15T23:39:54.915Z,89.40
2019-01-15T23:45:21.058Z,89.50
2019-01-15T23:50:47.855Z,89.60
2019-01-15T23:56:20.596Z,89.70
